createdAt,value
2023-01-29T00:01:14.779Z,99517.51
2023-01-29T00:03:45.632Z,99517.08
2023-01-29T00:06:16.160Z,99523.26
2023-01-29T00:08:47.965Z,99529.61
2023-01-29T00:11:20.553Z,99532.30
2023-01-29T00:13:51.900Z,99535.30
2023-01-29T00:16:23.230Z,99535.52
2023-01-29T00:18:54.405Z,99533.90
2023-01-29T00:21:25.823Z,99538.17
2023-01-29T00:23:57.648Z,99538.47
2023-01-29T00:26:29.412Z,99542.77
2023-01-29T00:29:02.954Z,99546.46
2023-01-29T00:31:34.687Z,99546.92
2023-01-29T00:34:05.612Z,99542.25
2023-01-29T00:36:37.013Z,99538.09
2023-01-29T00:44:46.471Z,99538.17
2023-01-29T00:47:34.659Z,99535.31
2023-01-29T00:50:08.730Z,99530.69
2023-01-29T00:52:41.317Z,99523.48
2023-01-29T00:55:14.400Z,99524.50
2023-01-29T00:57:45.829Z,99524.55
2023-01-29T01:03:15.804Z,99527.58
2023-01-29T01:05:53.723Z,99519.59
2023-01-29T01:08:42.332Z,99514.77
2023-01-29T01:11:13.855Z,99513.05
2023-01-29T01:13:45.490Z,99511.12
2023-01-29T01:16:21.090Z,99508.40
2023-01-29T01:18:53.162Z,99509.36
2023-01-29T01:21:24.706Z,99504.20
2023-01-29T01:24:03.439Z,99504.64
2023-01-29T01:26:35.288Z,99499.67
2023-01-29T01:29:07.116Z,99496.98
2023-01-29T01:31:38.430Z,99494.52
2023-01-29T01:34:15.135Z,99486.27
2023-01-29T01:36:46.918Z,99485.13
2023-01-29T01:39:18.284Z,99479.83
2023-01-29T01:41:52.448Z,99475.51
2023-01-29T01:49:16.077Z,99463.17
2023-01-29T01:51:51.514Z,99463.71
2023-01-29T01:54:26.100Z,99459.40
2023-01-29T01:57:09.907Z,99456.91
2023-01-29T01:59:43.542Z,99456.64
2023-01-29T02:02:32.934Z,99456.33
2023-01-29T02:05:23.897Z,99452.23
2023-01-29T02:08:13.428Z,99452.57
2023-01-29T02:10:48.787Z,99456.26
2023-01-29T02:13:19.982Z,99456.95
2023-01-29T02:15:54.168Z,99456.64
2023-01-29T02:18:25.903Z,99461.05
2023-01-29T02:21:10.702Z,99458.14
2023-01-29T02:24:14.816Z,99462.73
2023-01-29T02:26:57.037Z,99463.89
2023-01-29T02:29:35.549Z,99467.20
2023-01-29T02:32:15.508Z,99472.20
2023-01-29T02:35:07.817Z,99481.17
2023-01-29T02:37:41.769Z,99489.84
2023-01-29T02:40:23.147Z,99491.58
2023-01-29T02:43:01.566Z,99494.86
2023-01-29T02:45:36.821Z,99499.00
2023-01-29T02:48:08.354Z,99497.38
2023-01-29T02:50:43.389Z,99499.02
2023-01-29T02:53:18.729Z,99499.20
2023-01-29T02:55:53.094Z,99496.73
2023-01-29T02:58:31.048Z,99490.58
2023-01-29T03:01:06.621Z,99483.14
2023-01-29T03:03:42.140Z,99484.22
2023-01-29T03:06:22.824Z,99479.80
2023-01-29T03:08:58.113Z,99477.67
2023-01-29T03:11:33.657Z,99472.92
2023-01-29T03:14:07.550Z,99473.48
2023-01-29T03:16:43.395Z,99476.14
2023-01-29T03:19:17.760Z,99471.77
2023-01-29T03:21:59.924Z,99485.54
2023-01-29T03:24:56.148Z,99484.95
2023-01-29T03:27:48.904Z,99484.63
2023-01-29T03:30:39.444Z,99490.22
2023-01-29T03:33:24.242Z,99494.10
2023-01-29T03:36:01.167Z,99493.53
2023-01-29T03:38:34.762Z,99485.76
2023-01-29T03:41:06.996Z,99482.95
2023-01-29T03:43:42.815Z,99483.92
2023-01-29T03:46:22.740Z,99472.29
2023-01-29T03:49:00.237Z,99479.02
2023-01-29T03:51:36.692Z,99478.42
2023-01-29T03:54:13.580Z,99485.98
2023-01-29T03:56:56.199Z,99481.45
2023-01-29T03:59:35.229Z,99492.02
2023-01-29T04:02:19.672Z,99496.14
2023-01-29T04:04:52.457Z,99497.77
2023-01-29T04:07:25.339Z,99494.82
2023-01-29T04:10:07.136Z,99492.68
2023-01-29T04:12:43.028Z,99480.77
2023-01-29T04:15:17.519Z,99463.89
2023-01-29T04:17:53.080Z,99462.59
2023-01-29T04:20:47.714Z,99460.11
2023-01-29T04:23:26.703Z,99458.58
2023-01-29T04:26:10.048Z,99457.52
2023-01-29T04:28:53.803Z,99454.08
2023-01-29T04:31:28.961Z,99453.83
2023-01-29T04:34:10.508Z,99465.36
2023-01-29T04:36:51.434Z,99461.27
2023-01-29T04:39:28.316Z,99463.53
2023-01-29T04:42:07.351Z,99472.73
2023-01-29T04:44:44.068Z,99468.30
2023-01-29T04:47:23.598Z,99467.64
2023-01-29T04:50:00.832Z,99471.30
2023-01-29T04:52:39.021Z,99469.63
2023-01-29T04:55:14.892Z,99474.00
2023-01-29T04:57:51.153Z,99473.81
2023-01-29T05:00:27.408Z,99466.25
2023-01-29T05:02:59.951Z,99469.72
2023-01-29T05:05:32.466Z,99467.55
2023-01-29T05:08:03.597Z,99466.07
2023-01-29T05:10:35.263Z,99469.48
2023-01-29T05:13:08.147Z,99467.10
2023-01-29T05:15:43.935Z,99461.95
2023-01-29T05:18:16.052Z,99457.71
2023-01-29T05:20:47.777Z,99449.54
2023-01-29T05:23:21.461Z,99438.94
2023-01-29T05:25:53.996Z,99429.69
2023-01-29T05:28:29.331Z,99432.83
2023-01-29T05:31:02.710Z,99437.60
2023-01-29T05:33:36.140Z,99438.62
2023-01-29T05:36:09.781Z,99446.18
2023-01-29T05:38:43.687Z,99452.30
2023-01-29T05:41:15.527Z,99452.09
2023-01-29T05:43:47.141Z,99456.16
2023-01-29T05:46:18.467Z,99457.18
2023-01-29T05:48:52.497Z,99449.98
2023-01-29T05:51:23.133Z,99454.09
2023-01-29T05:53:54.013Z,99462.48
2023-01-29T05:56:25.372Z,99463.29
2023-01-29T05:58:56.579Z,99465.35
2023-01-29T06:01:28.426Z,99475.80
2023-01-29T06:03:59.661Z,99474.55
2023-01-29T06:06:30.849Z,99479.23
2023-01-29T06:09:01.573Z,99481.76
2023-01-29T06:11:32.490Z,99477.77
2023-01-29T06:14:04.439Z,99466.15
2023-01-29T06:16:35.476Z,99462.73
2023-01-29T06:19:06.065Z,99452.36
2023-01-29T06:21:36.347Z,99445.75
2023-01-29T06:24:07.720Z,99441.67
2023-01-29T06:26:38.117Z,99439.19
2023-01-29T06:29:08.691Z,99433.09
2023-01-29T06:31:40.035Z,99429.77
2023-01-29T06:34:10.667Z,99429.34
2023-01-29T06:36:41.766Z,99430.75
2023-01-29T06:39:12.962Z,99430.42
2023-01-29T06:41:45.281Z,99432.77
2023-01-29T06:44:16.556Z,99438.44
2023-01-29T06:46:47.658Z,99441.64
2023-01-29T06:49:22.813Z,99433.09
2023-01-29T06:51:54.578Z,99432.48
2023-01-29T06:54:26.086Z,99448.40
2023-01-29T06:56:57.579Z,99448.73
2023-01-29T06:59:29.125Z,99451.58
2023-01-29T07:02:00.263Z,99455.95
2023-01-29T07:04:30.741Z,99463.52
2023-01-29T07:07:02.015Z,99466.20
2023-01-29T07:09:32.589Z,99472.80
2023-01-29T07:12:02.860Z,99471.89
2023-01-29T07:14:33.508Z,99478.64
2023-01-29T07:17:04.460Z,99480.88
2023-01-29T07:19:35.277Z,99484.29
2023-01-29T07:22:06.576Z,99482.70
2023-01-29T07:24:37.355Z,99487.04
2023-01-29T07:27:08.040Z,99486.10
2023-01-29T07:29:40.574Z,99484.40
2023-01-29T07:32:12.771Z,99486.77
2023-01-29T07:34:45.717Z,99487.46
2023-01-29T07:37:19.596Z,99488.36
2023-01-29T07:39:52.374Z,99480.16
2023-01-29T07:42:26.123Z,99472.65
2023-01-29T07:45:00.114Z,99468.85
2023-01-29T07:47:31.400Z,99462.20
2023-01-29T07:50:02.698Z,99454.77
2023-01-29T07:52:36.684Z,99455.72
2023-01-29T07:55:10.335Z,99449.54
2023-01-29T07:57:42.181Z,99448.36
2023-01-29T08:00:18.756Z,99453.39
2023-01-29T08:02:53.195Z,99460.91
2023-01-29T08:05:26.811Z,99462.93
2023-01-29T08:08:06.452Z,99458.37
2023-01-29T08:10:41.634Z,99464.17
2023-01-29T08:13:14.730Z,99476.99
2023-01-29T08:15:47.935Z,99484.55
2023-01-29T08:18:20.712Z,99492.54
2023-01-29T08:20:52.838Z,99490.16
2023-01-29T08:23:25.753Z,99481.41
2023-01-29T08:25:57.905Z,99475.63
2023-01-29T08:28:30.741Z,99471.76
2023-01-29T08:37:42.159Z,99471.23
2023-01-29T08:40:14.566Z,99471.90
2023-01-29T08:42:44.906Z,99472.05
2023-01-29T08:45:15.784Z,99475.35
2023-01-29T08:47:49.385Z,99480.57
2023-01-29T08:50:20.502Z,99474.70
2023-01-29T08:52:51.014Z,99464.79
2023-01-29T08:55:21.497Z,99470.13
2023-01-29T08:57:51.825Z,99481.90
2023-01-29T09:00:23.246Z,99489.96
2023-01-29T09:02:53.656Z,99485.48
2023-01-29T09:05:24.021Z,99486.54
2023-01-29T09:07:54.404Z,99477.66
2023-01-29T09:10:24.892Z,99478.42
2023-01-29T09:12:55.345Z,99488.02
2023-01-29T09:15:25.682Z,99494.66
2023-01-29T09:17:56.062Z,99504.33
2023-01-29T09:20:26.405Z,99503.68
2023-01-29T09:22:59.105Z,99502.30
2023-01-29T09:25:29.445Z,99503.43
2023-01-29T09:27:59.822Z,99503.89
2023-01-29T09:30:30.227Z,99507.70
2023-01-29T09:33:02.514Z,99511.66
2023-01-29T09:35:32.845Z,99507.80
2023-01-29T09:38:03.563Z,99511.59
2023-01-29T09:40:39.763Z,99519.23
2023-01-29T09:43:16.856Z,99518.41
2023-01-29T09:45:53.556Z,99521.26
2023-01-29T09:48:26.214Z,99522.52
2023-01-29T09:50:57.462Z,99520.36
2023-01-29T09:53:32.971Z,99516.96
2023-01-29T09:56:05.245Z,99518.44
2023-01-29T09:58:37.841Z,99520.91
2023-01-29T10:01:16.359Z,99521.86
2023-01-29T10:04:23.375Z,99523.73
2023-01-29T10:07:04.808Z,99523.17
2023-01-29T10:09:58.245Z,99516.15
2023-01-29T10:12:33.924Z,99492.89
2023-01-29T10:15:10.571Z,99486.39
2023-01-29T10:17:50.862Z,99469.44
2023-01-29T10:20:37.445Z,99465.13
2023-01-29T10:23:19.316Z,99464.27
2023-01-29T10:25:50.535Z,99457.76
2023-01-29T10:28:24.487Z,99450.30
2023-01-29T10:30:59.221Z,99449.07
2023-01-29T10:33:49.372Z,99445.11
2023-01-29T10:36:29.990Z,99437.48
2023-01-29T10:39:00.391Z,99434.52
2023-01-29T10:41:50.089Z,99435.81
2023-01-29T10:44:31.456Z,99430.45
2023-01-29T10:47:17.966Z,99430.37
2023-01-29T10:50:06.563Z,99427.36
2023-01-29T10:52:46.512Z,99415.05
2023-01-29T10:55:25.975Z,99408.92
2023-01-29T10:58:03.135Z,99408.78
2023-01-29T11:04:53.387Z,99391.52
2023-01-29T11:08:04.402Z,99387.68
2023-01-29T11:10:40.377Z,99380.85
2023-01-29T11:13:16.082Z,99379.93
2023-01-29T11:15:46.515Z,99377.64
2023-01-29T11:18:17.521Z,99376.29
2023-01-29T11:20:48.536Z,99381.07
2023-01-29T11:23:29.497Z,99381.30
2023-01-29T11:26:01.312Z,99371.08
2023-01-29T11:28:43.241Z,99376.67
2023-01-29T11:31:27.606Z,99373.46
2023-01-29T11:34:06.971Z,99362.14
2023-01-29T11:36:39.631Z,99352.53
2023-01-29T11:39:18.880Z,99353.65
2023-01-29T11:41:54.266Z,99352.52
2023-01-29T11:44:30.760Z,99341.06
2023-01-29T11:47:11.193Z,99327.35
2023-01-29T11:49:45.548Z,99320.68
2023-01-29T11:52:17.810Z,99321.63
2023-01-29T11:54:50.314Z,99313.23
2023-01-29T11:57:27.741Z,99313.43
2023-01-29T11:59:59.500Z,99307.13
2023-01-29T12:02:35.479Z,99304.98
2023-01-29T12:05:16.902Z,99304.09
2023-01-29T12:07:49.770Z,99288.13
2023-01-29T12:10:35.592Z,99295.06
2023-01-29T12:13:22.953Z,99288.77
2023-01-29T12:16:10.680Z,99290.95
2023-01-29T12:18:43.150Z,99293.46
2023-01-29T12:21:18.080Z,99284.90
2023-01-29T12:23:53.440Z,99277.71
2023-01-29T12:26:28.702Z,99276.18
2023-01-29T12:29:16.867Z,99265.73
2023-01-29T12:31:53.363Z,99258.13
2023-01-29T12:34:28.642Z,99257.09
2023-01-29T12:37:02.171Z,99251.27
2023-01-29T12:39:33.380Z,99241.41
2023-01-29T12:42:06.947Z,99239.92
2023-01-29T12:44:42.519Z,99239.02
2023-01-29T12:47:18.552Z,99235.08
2023-01-29T12:49:51.990Z,99236.52
2023-01-29T12:52:27.779Z,99237.58
2023-01-29T12:55:02.912Z,99234.25
2023-01-29T12:57:38.241Z,99225.40
2023-01-29T13:00:13.996Z,99230.71
2023-01-29T13:02:49.569Z,99224.39
2023-01-29T13:05:23.783Z,99219.55
2023-01-29T13:07:58.513Z,99219.15
2023-01-29T13:10:34.063Z,99219.36
2023-01-29T13:13:08.182Z,99216.64
2023-01-29T13:15:41.305Z,99214.45
2023-01-29T13:18:34.330Z,99207.52
2023-01-29T13:21:06.315Z,99203.40
2023-01-29T13:23:40.844Z,99196.95
2023-01-29T13:26:12.971Z,99193.08
2023-01-29T13:28:47.349Z,99193.88
2023-01-29T13:31:27.906Z,99196.25
2023-01-29T13:34:03.504Z,99195.25
2023-01-29T13:36:34.324Z,99189.84
2023-01-29T13:39:06.872Z,99191.91
2023-01-29T13:41:39.851Z,99194.54
2023-01-29T13:44:19.551Z,99194.03
2023-01-29T13:46:55.028Z,99191.41
2023-01-29T13:49:30.356Z,99192.36
2023-01-29T13:52:01.711Z,99187.02
2023-01-29T13:54:32.112Z,99184.35
2023-01-29T13:57:03.884Z,99184.23
2023-01-29T13:59:57.551Z,99181.46
2023-01-29T14:02:29.585Z,99190.95
2023-01-29T14:05:30.951Z,99186.44
2023-01-29T14:08:02.565Z,99180.81
2023-01-29T14:10:34.294Z,99169.92
2023-01-29T14:13:30.329Z,99180.63
2023-01-29T14:16:36.239Z,99180.69
2023-01-29T14:19:07.772Z,99187.07
2023-01-29T14:21:39.616Z,99187.45
2023-01-29T14:24:19.427Z,99176.58
2023-01-29T14:32:54.219Z,99171.73
2023-01-29T14:35:26.770Z,99164.24
2023-01-29T14:37:59.156Z,99170.07
2023-01-29T14:40:30.949Z,99163.63
2023-01-29T14:43:04.821Z,99164.54
2023-01-29T14:45:35.980Z,99160.09
2023-01-29T14:48:33.953Z,99157.54
2023-01-29T14:51:10.900Z,99146.91
2023-01-29T14:53:51.326Z,99147.81
2023-01-29T14:56:25.939Z,99146.80
2023-01-29T14:59:00.875Z,99148.65
2023-01-29T15:01:35.432Z,99147.33
2023-01-29T15:04:08.419Z,99144.14
2023-01-29T15:06:39.884Z,99140.94
2023-01-29T15:09:15.648Z,99138.04
2023-01-29T15:11:53.031Z,99137.01
2023-01-29T15:14:32.497Z,99135.84
2023-01-29T15:17:19.819Z,99130.18
2023-01-29T15:19:50.879Z,99123.90
2023-01-29T15:22:23.341Z,99115.99
2023-01-29T15:25:08.771Z,99121.27
2023-01-29T15:27:43.915Z,99110.01
2023-01-29T15:30:19.378Z,99113.27
2023-01-29T15:32:50.157Z,99105.81
2023-01-29T15:35:30.314Z,99105.05
2023-01-29T15:38:05.939Z,99104.88
2023-01-29T15:40:36.712Z,99103.20
2023-01-29T15:43:22.597Z,99100.98
2023-01-29T15:45:54.037Z,99097.77
2023-01-29T15:48:31.987Z,99093.42
2023-01-29T15:51:05.173Z,99081.55
2023-01-29T15:53:38.540Z,99077.55
2023-01-29T15:56:13.392Z,99075.95
2023-01-29T15:58:44.358Z,99078.88
2023-01-29T16:01:15.678Z,99076.61
2023-01-29T16:03:46.673Z,99070.33
2023-01-29T16:06:17.531Z,99071.10
2023-01-29T16:08:51.984Z,99078.20
2023-01-29T16:11:22.872Z,99083.42
2023-01-29T16:13:54.091Z,99082.20
2023-01-29T16:16:27.863Z,99098.59
2023-01-29T16:19:00.688Z,99097.70
2023-01-29T16:21:36.297Z,99104.81
2023-01-29T16:24:11.952Z,99111.48
2023-01-29T16:27:00.275Z,99117.41
2023-01-29T16:29:38.973Z,99119.13
2023-01-29T16:32:13.857Z,99119.15
2023-01-29T16:34:48.078Z,99124.66
2023-01-29T16:37:24.001Z,99126.34
2023-01-29T16:39:54.805Z,99120.94
2023-01-29T16:42:28.507Z,99136.13
2023-01-29T16:45:01.522Z,99136.62
2023-01-29T16:47:34.939Z,99129.05
2023-01-29T16:50:05.189Z,99132.82
2023-01-29T16:52:36.474Z,99138.73
2023-01-29T16:55:26.763Z,99140.61
2023-01-29T16:57:57.841Z,99139.16
2023-01-29T17:00:29.015Z,99145.81
2023-01-29T17:03:04.323Z,99142.47
2023-01-29T17:05:37.287Z,99140.99
2023-01-29T17:08:06.792Z,99142.13
2023-01-29T17:10:37.303Z,99140.54
2023-01-29T17:13:09.931Z,99141.64
2023-01-29T17:15:48.936Z,99140.73
2023-01-29T17:18:21.413Z,99135.94
2023-01-29T17:20:53.004Z,99136.83
2023-01-29T17:23:23.993Z,99140.79
2023-01-29T17:25:54.369Z,99146.32
2023-01-29T17:28:24.817Z,99144.95
2023-01-29T17:31:05.896Z,99145.95
2023-01-29T17:33:39.033Z,99146.57
2023-01-29T17:36:13.883Z,99145.72
2023-01-29T17:39:00.443Z,99146.58
2023-01-29T17:41:32.387Z,99142.61
2023-01-29T17:44:03.152Z,99143.63
2023-01-29T17:46:33.748Z,99145.42
2023-01-29T17:49:04.580Z,99146.45
2023-01-29T17:51:35.416Z,99147.73
2023-01-29T17:54:06.454Z,99144.28
2023-01-29T17:56:37.016Z,99136.70
2023-01-29T17:59:14.391Z,99129.98
2023-01-29T18:01:45.185Z,99130.23
2023-01-29T18:04:15.805Z,99124.30
2023-01-29T18:06:48.326Z,99120.91
2023-01-29T18:09:20.799Z,99119.95
2023-01-29T18:11:52.033Z,99115.70
2023-01-29T18:14:22.943Z,99111.85
2023-01-29T18:16:53.402Z,99111.77
2023-01-29T18:19:28.242Z,99108.06
2023-01-29T18:21:58.635Z,99110.39
2023-01-29T18:24:30.091Z,99114.88
2023-01-29T18:27:01.110Z,99102.73
2023-01-29T18:29:31.639Z,99097.86
2023-01-29T18:32:02.106Z,99094.96
2023-01-29T18:34:32.803Z,99091.88
2023-01-29T18:37:03.574Z,99083.87
2023-01-29T18:39:34.326Z,99083.19
2023-01-29T18:42:04.907Z,99085.88
2023-01-29T18:44:35.490Z,99086.56
2023-01-29T18:47:05.958Z,99089.45
2023-01-29T18:49:38.865Z,99084.76
2023-01-29T18:52:08.081Z,99081.73
2023-01-29T18:54:38.553Z,99081.59
2023-01-29T18:57:14.525Z,99079.05
2023-01-29T18:59:59.353Z,99075.48
2023-01-29T19:02:30.565Z,99072.82
2023-01-29T19:05:01.095Z,99070.41
2023-01-29T19:07:31.542Z,99067.06
2023-01-29T19:10:04.792Z,99063.62
2023-01-29T19:12:35.613Z,99056.36
2023-01-29T19:15:07.450Z,99054.86
2023-01-29T19:17:38.449Z,99058.74
2023-01-29T19:20:11.514Z,99057.67
2023-01-29T19:22:42.584Z,99057.45
2023-01-29T19:25:13.748Z,99052.23
2023-01-29T19:27:44.172Z,99047.74
2023-01-29T19:30:15.922Z,99046.05
2023-01-29T19:32:46.525Z,99044.05
2023-01-29T19:35:17.285Z,99041.16
2023-01-29T19:37:48.043Z,99038.98
2023-01-29T19:40:19.740Z,99042.92
2023-01-29T19:42:50.399Z,99040.41
2023-01-29T19:45:49.734Z,99042.08
2023-01-29T19:48:20.267Z,99040.48
2023-01-29T19:50:55.479Z,99039.22
2023-01-29T19:53:26.239Z,99035.70
2023-01-29T19:56:06.178Z,99025.55
2023-01-29T19:58:37.051Z,99034.45
2023-01-29T20:01:09.350Z,99032.75
2023-01-29T20:03:42.008Z,99029.36
2023-01-29T20:06:12.458Z,99029.40
2023-01-29T20:08:42.817Z,99034.80
2023-01-29T20:11:14.705Z,99031.48
2023-01-29T20:13:47.181Z,99023.89
2023-01-29T20:16:18.288Z,99022.51
2023-01-29T20:18:49.136Z,99024.96
2023-01-29T20:21:22.699Z,99023.44
2023-01-29T20:23:53.903Z,99019.09
2023-01-29T20:26:24.386Z,99016.95
2023-01-29T20:28:54.963Z,99011.29
2023-01-29T20:31:25.531Z,99010.54
2023-01-29T20:34:10.775Z,99008.78
2023-01-29T20:36:41.399Z,99007.10
2023-01-29T20:39:12.095Z,99004.84
2023-01-29T20:41:42.738Z,98997.58
2023-01-29T20:44:13.252Z,98998.77
2023-01-29T20:46:43.751Z,98990.41
2023-01-29T20:49:14.365Z,98994.75
2023-01-29T20:51:45.201Z,99000.18
2023-01-29T20:54:15.615Z,98997.94
2023-01-29T20:56:47.254Z,98992.19
2023-01-29T20:59:18.276Z,98987.89
2023-01-29T21:01:49.539Z,98972.29
2023-01-29T21:04:20.093Z,98980.63
2023-01-29T21:06:50.780Z,98978.66
2023-01-29T21:09:21.311Z,98978.41
2023-01-29T21:11:51.789Z,98981.61
2023-01-29T21:14:22.641Z,98978.41
2023-01-29T21:16:53.280Z,98967.95
2023-01-29T21:19:23.755Z,98967.27
2023-01-29T21:21:54.546Z,98964.69
2023-01-29T21:24:25.728Z,98966.23
2023-01-29T21:26:56.408Z,98958.50
2023-01-29T21:29:26.823Z,98955.11
2023-01-29T21:31:57.316Z,98945.39
2023-01-29T21:34:28.329Z,98928.95
2023-01-29T21:36:58.833Z,98924.02
2023-01-29T21:39:29.413Z,98927.01
2023-01-29T21:42:25.471Z,98926.52
2023-01-29T21:44:55.952Z,98916.50
2023-01-29T21:47:26.388Z,98911.18
2023-01-29T21:49:56.747Z,98900.53
2023-01-29T21:52:27.131Z,98888.73
2023-01-29T21:54:57.574Z,98881.16
2023-01-29T21:57:27.989Z,98893.42
2023-01-29T21:59:59.468Z,98890.05
2023-01-29T22:02:32.231Z,98883.27
2023-01-29T22:05:17.548Z,98877.92
2023-01-29T22:07:48.650Z,98887.09
2023-01-29T22:10:21.017Z,98893.13
2023-01-29T22:12:52.187Z,98889.42
2023-01-29T22:15:24.159Z,98887.71
2023-01-29T22:17:54.721Z,98881.88
2023-01-29T22:20:30.201Z,98885.23
2023-01-29T22:23:01.422Z,98884.85
2023-01-29T22:25:32.475Z,98874.86
2023-01-29T22:28:03.214Z,98871.77
2023-01-29T22:30:33.899Z,98866.48
2023-01-29T22:33:04.494Z,98859.24
2023-01-29T22:35:35.066Z,98859.89
2023-01-29T22:38:05.804Z,98866.63
2023-01-29T22:40:36.612Z,98859.48
2023-01-29T22:43:07.571Z,98847.79
2023-01-29T22:45:41.273Z,98852.45
2023-01-29T22:48:12.334Z,98848.38
2023-01-29T22:50:43.004Z,98845.35
2023-01-29T22:53:13.790Z,98841.38
2023-01-29T22:55:44.305Z,98835.73
2023-01-29T22:58:14.555Z,98833.42
2023-01-29T23:00:44.980Z,98830.92
2023-01-29T23:03:15.456Z,98827.90
2023-01-29T23:05:45.939Z,98818.37
2023-01-29T23:08:16.516Z,98810.23
2023-01-29T23:10:46.849Z,98809.13
2023-01-29T23:13:17.620Z,98816.70
2023-01-29T23:15:48.084Z,98824.83
2023-01-29T23:18:18.662Z,98826.39
2023-01-29T23:20:49.238Z,98821.13
2023-01-29T23:23:19.663Z,98815.44
2023-01-29T23:26:07.743Z,98818.56
2023-01-29T23:28:38.182Z,98821.46
2023-01-29T23:31:08.834Z,98820.48
2023-01-29T23:33:39.317Z,98824.05
2023-01-29T23:36:11.048Z,98818.23
2023-01-29T23:38:41.378Z,98827.04
2023-01-29T23:41:11.808Z,98821.38
2023-01-29T23:43:42.233Z,98813.59
2023-01-29T23:46:12.712Z,98814.20
2023-01-29T23:48:43.170Z,98809.75
2023-01-29T23:51:13.467Z,98801.12
2023-01-29T23:53:44.151Z,98798.20
2023-01-29T23:56:14.676Z,98790.34
2023-01-29T23:58:46.021Z,98794.27
